Time;durP1;ratioP1;P1;durP2;ratioP2;P2;SDS_P1;SDS_P2;PMS_P1;PMS_P2;Temp;Humidity;BMP_temperature;BMP_pressure;BME280_temperature;BME280_humidity;BME280_pressure;Samples;Min_cycle;Max_cycle;Signal;HPM_P1;HPM_P2
2022/09/07 00:01:24;;;;;;;13.05;8.57;;;18.90;99.90;;;;;;4984691;28;20046;-74
2022/09/07 00:03:54;;;;;;;9.73;8.73;;;18.90;99.90;;;;;;4991723;28;20077;-73
2022/09/07 00:06:20;;;;;;;12.02;8.90;;;18.80;99.90;;;;;;5013336;28;20042;-74
2022/09/07 00:08:46;;;;;;;9.88;8.88;;;18.80;99.90;;;;;;5010204;28;20046;-74
2022/09/07 00:11:16;;;;;;;11.63;8.80;;;18.80;99.90;;;;;;4960676;28;20037;-74
2022/09/07 00:13:44;;;;;;;11.18;9.07;;;18.70;99.90;;;;;;5004221;28;20109;-74
2022/09/07 00:16:21;;;;;;;11.10;8.70;;;18.70;99.90;;;;;;4993626;28;20045;-74
2022/09/07 00:18:47;;;;;;;11.98;8.80;;;18.70;99.90;;;;;;4999468;28;20061;-74
2022/09/07 00:21:15;;;;;;;11.13;9.48;;;18.60;99.90;;;;;;4989837;28;20065;-74
2022/09/07 00:23:42;;;;;;;12.90;8.93;;;18.60;99.90;;;;;;4994939;28;20042;-74
2022/09/07 00:26:14;;;;;;;11.93;9.38;;;18.60;99.90;;;;;;4995035;28;20394;-74
2022/09/07 00:28:40;;;;;;;12.88;9.32;;;18.60;99.90;;;;;;5008500;28;20132;-74
2022/09/07 00:31:12;;;;;;;11.05;9.32;;;18.50;99.90;;;;;;4991385;28;20060;-74
2022/09/07 00:33:39;;;;;;;12.38;8.95;;;18.50;99.90;;;;;;5008293;28;20084;-74
2022/09/07 00:36:05;;;;;;;17.20;9.38;;;18.50;99.90;;;;;;5008054;28;20056;-74
2022/09/07 00:38:31;;;;;;;11.57;9.30;;;18.40;99.90;;;;;;5026609;28;20191;-74
2022/09/07 00:40:57;;;;;;;11.23;9.18;;;18.50;99.90;;;;;;4993425;28;20125;-74
2022/09/07 00:43:31;;;;;;;9.65;8.65;;;18.50;99.90;;;;;;5014179;28;20053;-74
2022/09/07 00:45:57;;;;;;;12.30;9.23;;;18.50;99.90;;;;;;4983784;28;20046;-74
2022/09/07 00:48:33;;;;;;;12.15;9.05;;;18.50;99.90;;;;;;5014444;28;20052;-74
2022/09/07 00:51:04;;;;;;;12.23;9.35;;;18.50;99.90;;;;;;5005577;28;20046;-73
2022/09/07 00:53:38;;;;;;;11.00;8.63;;;18.50;99.90;;;;;;5007499;28;20180;-74
2022/09/07 00:56:05;;;;;;;13.85;8.82;;;18.50;99.90;;;;;;4993227;28;20050;-74
2022/09/07 00:58:33;;;;;;;14.95;9.35;;;18.50;99.90;;;;;;5009524;28;20516;-74
2022/09/07 01:00:59;;;;;;;13.07;9.50;;;18.50;99.90;;;;;;5004238;28;20057;-74
2022/09/07 01:03:28;;;;;;;13.60;9.15;;;18.50;99.90;;;;;;4977517;28;20410;-74
2022/09/07 01:06:12;;;;;;;12.07;8.95;;;18.50;99.90;;;;;;5007676;28;20514;-74
2022/09/07 01:08:38;;;;;;;13.20;9.23;;;18.40;99.90;;;;;;4999464;28;20060;-74
2022/09/07 01:11:05;;;;;;;16.48;9.95;;;18.40;99.90;;;;;;5026090;28;20065;-74
2022/09/07 01:13:31;;;;;;;10.82;9.13;;;18.40;99.90;;;;;;5023844;28;20099;-74
2022/09/07 01:16:22;;;;;;;13.00;9.57;;;18.40;99.90;;;;;;4992822;28;20042;-73
2022/09/07 01:18:56;;;;;;;13.90;9.40;;;18.30;99.90;;;;;;4988255;28;20057;-74
2022/09/07 01:21:26;;;;;;;11.50;9.68;;;18.30;99.90;;;;;;5013823;28;20112;-74
2022/09/07 01:24:17;;;;;;;13.45;10.18;;;18.30;99.90;;;;;;5013204;28;20432;-74
2022/09/07 01:27:20;;;;;;;12.73;10.43;;;18.30;99.90;;;;;;5013184;28;20437;-74
2022/09/07 01:30:04;;;;;;;13.80;10.95;;;18.20;99.90;;;;;;5014829;28;20053;-74
2022/09/07 01:32:50;;;;;;;17.65;11.15;;;18.20;99.90;;;;;;5008228;28;20513;-73
2022/09/07 01:35:22;;;;;;;14.10;11.73;;;17.80;99.90;;;;;;4986719;28;20104;-73
2022/09/07 01:37:59;;;;;;;15.80;12.00;;;17.60;99.90;;;;;;5005382;28;20053;-72
2022/09/07 01:40:31;;;;;;;14.40;11.85;;;17.40;99.90;;;;;;4989975;28;20116;-72
2022/09/07 01:43:05;;;;;;;19.27;13.05;;;17.30;99.90;;;;;;5007712;28;20069;-73
2022/09/07 01:45:35;;;;;;;15.80;12.93;;;17.20;99.90;;;;;;4993257;28;20041;-72
2022/09/07 01:48:06;;;;;;;19.27;14.43;;;17.10;99.90;;;;;;5001803;28;20116;-73
2022/09/07 01:50:58;;;;;;;29.42;16.42;;;17.10;99.90;;;;;;5012986;28;20372;-71
2022/09/07 01:53:38;;;;;;;38.83;18.85;;;17.10;99.90;;;;;;5022155;28;20472;-71
2022/09/07 01:56:13;;;;;;;21.48;14.82;;;17.00;99.90;;;;;;5008683;28;20042;-73
2022/09/07 01:58:45;;;;;;;21.35;14.98;;;16.90;99.90;;;;;;5015027;28;20042;-73
2022/09/07 02:01:49;;;;;;;22.48;17.02;;;16.90;99.90;;;;;;4979570;28;20038;-73
2022/09/07 02:04:41;;;;;;;26.35;19.02;;;16.90;99.90;;;;;;5004624;28;20050;-73
2022/09/07 02:07:21;;;;;;;26.77;18.42;;;16.80;99.90;;;;;;4986137;28;20053;-73
2022/09/07 02:10:26;;;;;;;21.02;16.92;;;16.70;99.90;;;;;;5004863;28;20038;-73
2022/09/07 02:12:58;;;;;;;22.50;14.10;;;16.80;99.90;;;;;;4957854;28;20050;-73
2022/09/07 02:15:56;;;;;;;23.77;16.58;;;16.70;99.90;;;;;;5003695;28;20177;-72
2022/09/07 02:18:25;;;;;;;21.58;16.55;;;16.70;99.90;;;;;;5005529;28;20511;-73
2022/09/07 02:20:56;;;;;;;22.38;17.45;;;16.60;99.90;;;;;;5001666;28;20090;-73
2022/09/07 02:23:27;;;;;;;26.30;18.43;;;16.60;99.90;;;;;;4995911;28;20038;-73
2022/09/07 02:26:01;;;;;;;24.80;18.25;;;16.60;99.90;;;;;;5012187;28;20280;-73
2022/09/07 02:28:31;;;;;;;24.45;17.67;;;16.60;99.90;;;;;;5010062;28;20115;-72
2022/09/07 02:30:57;;;;;;;25.73;17.73;;;16.60;99.90;;;;;;5012729;28;20046;-73
2022/09/07 02:33:23;;;;;;;26.27;19.40;;;16.60;99.90;;;;;;4977123;28;20360;-73
2022/09/07 02:35:50;;;;;;;26.65;19.55;;;16.60;99.90;;;;;;5004577;28;20049;-73
2022/09/07 02:38:16;;;;;;;31.00;21.45;;;16.60;99.90;;;;;;5005461;28;20120;-73
2022/09/07 02:40:42;;;;;;;27.95;19.45;;;16.60;99.90;;;;;;4989008;28;20061;-73
2022/09/07 02:43:10;;;;;;;28.88;20.88;;;16.70;99.90;;;;;;4994196;28;20100;-73
2022/09/07 02:46:14;;;;;;;24.10;18.95;;;16.70;99.90;;;;;;5011494;28;20052;-73
2022/09/07 02:49:18;;;;;;;31.17;20.88;;;16.80;99.90;;;;;;4994061;28;20627;-73
2022/09/07 02:51:49;;;;;;;28.40;20.88;;;16.80;99.90;;;;;;5006185;28;20045;-73
2022/09/07 02:54:21;;;;;;;28.42;20.58;;;16.80;99.90;;;;;;5010414;28;20517;-73
2022/09/07 02:57:20;;;;;;;24.08;18.45;;;16.90;99.90;;;;;;5012087;28;20386;-73
2022/09/07 03:00:24;;;;;;;23.77;18.88;;;17.00;99.90;;;;;;4994168;28;20068;-73
2022/09/07 03:02:53;;;;;;;24.23;19.08;;;17.00;99.90;;;;;;4972717;28;20133;-73
2022/09/07 03:05:34;;;;;;;25.40;19.25;;;17.00;99.90;;;;;;4988876;28;20073;-73
2022/09/07 03:08:05;;;;;;;24.05;18.05;;;17.10;99.90;;;;;;5011192;28;20061;-73
2022/09/07 03:10:33;;;;;;;25.58;19.85;;;17.10;99.90;;;;;;5011473;28;20049;-73
2022/09/07 03:12:59;;;;;;;27.23;19.48;;;17.10;99.90;;;;;;5008454;28;20057;-73
2022/09/07 03:15:26;;;;;;;26.90;19.38;;;17.10;99.90;;;;;;5006032;28;20124;-73
2022/09/07 03:17:52;;;;;;;28.17;18.63;;;17.10;99.90;;;;;;4991022;28;20042;-72
2022/09/07 03:20:19;;;;;;;27.60;19.23;;;17.10;99.90;;;;;;4992378;28;20057;-73
2022/09/07 03:22:46;;;;;;;28.33;21.30;;;17.10;99.90;;;;;;4995660;28;20045;-73
2022/09/07 03:25:13;;;;;;;26.50;19.60;;;17.00;99.90;;;;;;5010396;28;20042;-74
2022/09/07 03:27:39;;;;;;;25.95;20.00;;;17.10;99.90;;;;;;4995012;28;20050;-73
2022/09/07 03:30:07;;;;;;;28.23;21.02;;;17.10;99.90;;;;;;4991765;28;20549;-73
2022/09/07 03:32:35;;;;;;;29.60;20.77;;;17.10;99.90;;;;;;5026379;28;20096;-73
2022/09/07 03:35:03;;;;;;;30.45;21.33;;;17.10;99.90;;;;;;5011488;28;20398;-73
2022/09/07 03:37:29;;;;;;;27.23;21.27;;;17.00;99.90;;;;;;4995388;28;20038;-73
2022/09/07 03:39:55;;;;;;;28.98;21.30;;;17.00;99.90;;;;;;5008539;28;20052;-73
2022/09/07 03:42:21;;;;;;;26.77;20.73;;;17.00;99.90;;;;;;4995231;28;20040;-73
2022/09/07 03:44:50;;;;;;;28.35;20.67;;;17.00;99.90;;;;;;4995301;28;20368;-72
2022/09/07 03:47:16;;;;;;;25.60;21.08;;;17.00;99.90;;;;;;5011143;28;20504;-73
2022/09/07 03:49:43;;;;;;;27.98;21.27;;;17.00;99.90;;;;;;5010592;28;20050;-73
2022/09/07 03:52:09;;;;;;;27.13;22.00;;;17.00;99.90;;;;;;5007527;28;20045;-74
2022/09/07 03:54:34;;;;;;;29.25;22.48;;;17.00;99.90;;;;;;4994203;28;20046;-73
2022/09/07 03:57:00;;;;;;;26.75;20.60;;;17.00;99.90;;;;;;5011038;28;20104;-73
2022/09/07 03:59:26;;;;;;;30.58;21.77;;;17.00;99.90;;;;;;4994685;28;20053;-73
2022/09/07 04:01:52;;;;;;;28.05;21.38;;;16.90;99.90;;;;;;5010769;28;20045;-73
2022/09/07 04:04:18;;;;;;;30.05;22.33;;;16.90;99.90;;;;;;5010904;28;20117;-73
2022/09/07 04:06:44;;;;;;;32.67;23.55;;;16.90;99.90;;;;;;4994949;28;20578;-72
2022/09/07 04:09:12;;;;;;;33.78;24.92;;;16.90;99.90;;;;;;4978179;28;20213;-73
2022/09/07 04:11:39;;;;;;;32.22;23.13;;;16.90;99.90;;;;;;5014204;28;20541;-73
2022/09/07 04:14:06;;;;;;;34.00;22.70;;;16.90;99.90;;;;;;5015002;28;20033;-73
2022/09/07 04:16:31;;;;;;;30.15;22.70;;;16.90;99.90;;;;;;4999572;28;20050;-74
2022/09/07 04:18:57;;;;;;;35.42;24.38;;;16.90;99.90;;;;;;4995051;28;20109;-73
2022/09/07 04:21:25;;;;;;;32.25;23.55;;;16.80;99.90;;;;;;4987747;28;20049;-73
2022/09/07 04:23:51;;;;;;;31.00;24.15;;;16.80;99.90;;;;;;5017019;28;20046;-74
2022/09/07 04:26:22;;;;;;;29.63;22.85;;;16.80;99.90;;;;;;4997612;28;20042;-74
2022/09/07 04:28:49;;;;;;;28.90;22.67;;;16.80;99.90;;;;;;4998523;28;20128;-74
2022/09/07 04:31:17;;;;;;;31.05;23.92;;;16.80;99.90;;;;;;4998205;28;20089;-74
2022/09/07 04:33:44;;;;;;;30.50;22.25;;;16.80;99.90;;;;;;5012700;28;20050;-73
2022/09/07 04:36:11;;;;;;;27.65;22.23;;;16.80;99.90;;;;;;5014190;28;20045;-74
2022/09/07 04:38:38;;;;;;;32.15;24.15;;;16.80;99.90;;;;;;5013509;28;20041;-74
2022/09/07 04:41:16;;;;;;;30.33;22.27;;;16.80;99.90;;;;;;4997232;28;20044;-73
2022/09/07 04:43:42;;;;;;;32.95;23.88;;;16.80;99.90;;;;;;5014012;28;20077;-73
2022/09/07 04:46:18;;;;;;;31.63;22.55;;;16.80;99.90;;;;;;5000814;28;20374;-73
2022/09/07 04:48:56;;;;;;;31.70;23.05;;;16.80;99.90;;;;;;4998253;28;20053;-73
2022/09/07 04:51:24;;;;;;;31.27;24.17;;;16.80;99.90;;;;;;5014392;28;20045;-74
2022/09/07 04:53:51;;;;;;;35.25;24.42;;;16.80;99.90;;;;;;5012761;28;20034;-74
2022/09/07 04:56:18;;;;;;;32.08;24.55;;;16.80;99.90;;;;;;5012545;28;20044;-73
2022/09/07 04:58:45;;;;;;;34.80;24.67;;;16.80;99.90;;;;;;4980097;28;20042;-74
2022/09/07 05:01:13;;;;;;;36.13;25.80;;;16.70;99.90;;;;;;4997848;28;20041;-74
2022/09/07 05:03:39;;;;;;;30.48;24.15;;;16.70;99.90;;;;;;4997124;28;20044;-74
2022/09/07 05:06:06;;;;;;;31.52;24.13;;;16.80;99.90;;;;;;5013056;28;20129;-74
2022/09/07 05:08:40;;;;;;;33.05;24.75;;;16.80;99.90;;;;;;5011876;28;20058;-73
2022/09/07 05:11:07;;;;;;;37.60;24.35;;;16.80;99.90;;;;;;5012654;28;20450;-74
2022/09/07 05:13:33;;;;;;;32.75;25.25;;;16.80;99.90;;;;;;5013721;28;20050;-74
2022/09/07 05:16:05;;;;;;;30.88;24.65;;;16.80;99.90;;;;;;4996804;28;20167;-74
2022/09/07 05:18:32;;;;;;;31.33;24.20;;;16.80;99.90;;;;;;5013648;28;20042;-74
2022/09/07 05:21:16;;;;;;;35.45;25.20;;;16.80;99.90;;;;;;5013505;28;20046;-74
2022/09/07 05:23:43;;;;;;;30.98;24.00;;;16.80;99.90;;;;;;5013236;28;20038;-74
2022/09/07 05:26:10;;;;;;;32.47;24.52;;;16.80;99.90;;;;;;5013288;28;20048;-74
2022/09/07 05:28:36;;;;;;;30.80;23.25;;;16.80;99.90;;;;;;5013766;28;20538;-74
2022/09/07 05:31:32;;;;;;;33.22;25.40;;;16.80;99.90;;;;;;4981390;28;20355;-74
2022/09/07 05:33:58;;;;;;;29.10;23.38;;;16.80;99.90;;;;;;5021574;28;20390;-74
2022/09/07 05:36:28;;;;;;;29.25;22.52;;;16.80;99.90;;;;;;5000510;28;20479;-74
2022/09/07 05:38:55;;;;;;;29.48;22.98;;;16.80;99.90;;;;;;5010338;28;20053;-74
2022/09/07 05:41:25;;;;;;;28.08;22.48;;;16.80;99.90;;;;;;5006433;28;20446;-74
2022/09/07 05:43:52;;;;;;;31.37;23.10;;;16.80;99.90;;;;;;4997352;28;20430;-74
2022/09/07 05:46:19;;;;;;;29.60;21.95;;;16.80;99.90;;;;;;5013672;28;20056;-75
2022/09/07 05:48:45;;;;;;;30.67;23.58;;;16.70;99.90;;;;;;4997224;28;20387;-74
2022/09/07 05:51:12;;;;;;;38.67;25.70;;;16.80;99.90;;;;;;5012805;28;20049;-74
2022/09/07 05:53:41;;;;;;;48.58;25.55;;;16.80;99.90;;;;;;5012070;28;20495;-74
2022/09/07 05:56:08;;;;;;;28.45;23.27;;;16.80;99.90;;;;;;4987629;28;20038;-74
2022/09/07 05:58:35;;;;;;;31.27;24.65;;;16.80;99.90;;;;;;5013332;28;20030;-74
2022/09/07 06:01:06;;;;;;;34.08;25.15;;;16.80;99.90;;;;;;5011871;28;20054;-74
2022/09/07 06:03:33;;;;;;;35.47;26.40;;;16.80;99.90;;;;;;4997000;28;20038;-74
2022/09/07 06:06:18;;;;;;;32.38;24.75;;;16.80;99.90;;;;;;4992218;28;20291;-74
2022/09/07 06:08:50;;;;;;;33.97;24.98;;;16.80;99.90;;;;;;4998030;28;20054;-74
2022/09/07 06:11:18;;;;;;;33.65;25.05;;;16.80;99.90;;;;;;5012822;28;20078;-74
2022/09/07 06:13:44;;;;;;;29.85;24.08;;;16.80;99.90;;;;;;5012752;28;20041;-74
2022/09/07 06:16:11;;;;;;;29.27;24.05;;;16.80;99.90;;;;;;5012875;28;20046;-74
2022/09/07 06:18:42;;;;;;;33.78;25.20;;;16.80;99.90;;;;;;4996551;28;20046;-74
2022/09/07 06:21:21;;;;;;;34.15;25.70;;;16.80;99.90;;;;;;5011539;28;20052;-74
2022/09/07 06:23:48;;;;;;;34.60;25.00;;;16.90;99.90;;;;;;4996407;28;20092;-74
2022/09/07 06:26:15;;;;;;;35.10;25.73;;;16.90;99.90;;;;;;5012940;28;20561;-74
2022/09/07 06:28:44;;;;;;;38.20;26.45;;;16.90;99.90;;;;;;5011597;28;20042;-74
2022/09/07 06:31:12;;;;;;;41.13;27.35;;;17.00;99.90;;;;;;4997988;28;20050;-74
2022/09/07 06:33:39;;;;;;;39.20;26.52;;;17.00;99.90;;;;;;4993538;28;20374;-74
2022/09/07 06:36:09;;;;;;;35.45;25.30;;;17.20;99.90;;;;;;4997319;28;20061;-74
2022/09/07 06:38:36;;;;;;;33.35;25.45;;;17.20;99.90;;;;;;4976663;28;20096;-74
2022/09/07 06:41:07;;;;;;;34.17;26.20;;;17.30;99.90;;;;;;4993885;28;20070;-75
2022/09/07 06:43:33;;;;;;;33.78;26.05;;;17.50;99.90;;;;;;5012409;28;20378;-75
2022/09/07 06:46:00;;;;;;;31.90;25.05;;;17.50;99.90;;;;;;5010358;28;20401;-75
2022/09/07 06:48:26;;;;;;;35.00;26.23;;;17.60;99.90;;;;;;5012620;28;20050;-75
2022/09/07 06:50:57;;;;;;;30.70;24.83;;;17.70;99.90;;;;;;4995733;28;20050;-75
2022/09/07 06:53:23;;;;;;;26.60;22.80;;;17.70;99.90;;;;;;5011482;28;20111;-75
2022/09/07 06:55:49;;;;;;;35.78;25.63;;;17.80;99.90;;;;;;4995445;28;20140;-75
2022/09/07 06:58:15;;;;;;;29.02;23.60;;;17.90;99.90;;;;;;5012447;28;20536;-75
2022/09/07 07:00:41;;;;;;;30.42;24.23;;;18.00;99.90;;;;;;5011750;28;20038;-74
2022/09/07 07:03:08;;;;;;;26.75;21.60;;;18.10;99.90;;;;;;4996084;28;20363;-75
2022/09/07 07:05:34;;;;;;;28.95;22.45;;;18.10;99.90;;;;;;4979157;28;20077;-75
2022/09/07 07:07:59;;;;;;;29.98;24.45;;;18.20;99.90;;;;;;4991993;28;20090;-75
2022/09/07 07:10:25;;;;;;;28.30;24.42;;;18.40;99.90;;;;;;4976547;28;20050;-75
2022/09/07 07:12:55;;;;;;;28.35;22.90;;;18.50;99.90;;;;;;4978361;28;20046;-75
2022/09/07 07:15:24;;;;;;;25.15;21.08;;;18.70;99.90;;;;;;4979069;28;20045;-75
2022/09/07 07:17:50;;;;;;;28.60;23.30;;;18.80;99.90;;;;;;5010945;28;20398;-75
2022/09/07 07:20:23;;;;;;;28.38;22.75;;;18.90;99.90;;;;;;4989057;28;20038;-75
2022/09/07 07:22:53;;;;;;;27.50;21.75;;;18.90;99.90;;;;;;4991319;28;20069;-75
2022/09/07 07:25:21;;;;;;;24.52;21.13;;;18.90;99.90;;;;;;5003032;28;20041;-75
2022/09/07 07:27:47;;;;;;;27.98;21.58;;;18.80;99.90;;;;;;4960179;28;20042;-75
2022/09/07 07:30:17;;;;;;;25.77;21.65;;;18.80;99.90;;;;;;4986679;28;20053;-75
2022/09/07 07:32:44;;;;;;;25.83;21.58;;;18.80;99.90;;;;;;5009327;28;20124;-75
2022/09/07 07:35:17;;;;;;;23.98;19.77;;;18.80;99.90;;;;;;4992595;28;20124;-75
2022/09/07 07:37:43;;;;;;;24.17;19.95;;;18.80;99.90;;;;;;4975921;28;20050;-75
2022/09/07 07:40:12;;;;;;;27.15;21.63;;;18.70;99.90;;;;;;4965288;28;20077;-76
2022/09/07 07:42:38;;;;;;;24.27;20.77;;;18.60;99.90;;;;;;5027314;28;20390;-75
2022/09/07 07:45:06;;;;;;;24.38;20.92;;;18.60;99.90;;;;;;4990756;28;20038;-75
2022/09/07 07:47:32;;;;;;;25.50;21.38;;;18.50;99.90;;;;;;5013358;28;20121;-75
2022/09/07 07:49:58;;;;;;;23.75;21.05;;;18.50;99.90;;;;;;5011807;28;20117;-75
2022/09/07 07:52:24;;;;;;;27.88;22.25;;;18.40;99.90;;;;;;4998855;28;20049;-76
2022/09/07 07:54:50;;;;;;;27.63;22.15;;;18.40;99.90;;;;;;4997573;28;20095;-75
2022/09/07 07:57:17;;;;;;;25.77;21.80;;;18.40;99.90;;;;;;5001184;28;20507;-76
2022/09/07 07:59:43;;;;;;;27.02;22.50;;;18.30;99.90;;;;;;4998116;28;20057;-76
2022/09/07 08:02:14;;;;;;;30.42;23.67;;;18.40;99.90;;;;;;5015757;28;20049;-76
2022/09/07 08:04:40;;;;;;;27.60;23.02;;;18.40;99.90;;;;;;4998144;28;20510;-76
2022/09/07 08:07:07;;;;;;;26.25;22.70;;;18.40;99.90;;;;;;4993345;28;20084;-75
2022/09/07 08:09:33;;;;;;;27.13;22.15;;;18.40;99.90;;;;;;5015415;28;20052;-76
2022/09/07 08:12:01;;;;;;;26.25;22.80;;;18.30;99.90;;;;;;4982883;28;20268;-75
2022/09/07 08:14:27;;;;;;;27.88;22.02;;;18.30;99.90;;;;;;4979400;28;20041;-76
2022/09/07 08:16:53;;;;;;;28.45;21.90;;;18.30;99.90;;;;;;5015269;28;20053;-76
2022/09/07 08:19:18;;;;;;;27.40;22.48;;;18.30;99.90;;;;;;4966117;28;20474;-76
2022/09/07 08:21:44;;;;;;;27.83;22.70;;;18.30;99.90;;;;;;4964369;28;20057;-75
2022/09/07 08:24:10;;;;;;;28.65;23.55;;;18.30;99.90;;;;;;4997863;28;20052;-76
2022/09/07 08:26:36;;;;;;;30.02;23.25;;;18.30;99.90;;;;;;4991220;28;20045;-75
2022/09/07 08:29:02;;;;;;;25.35;21.42;;;18.40;99.90;;;;;;5011695;28;20042;-76
2022/09/07 08:31:28;;;;;;;28.20;22.92;;;18.40;99.90;;;;;;5013359;28;20091;-76
2022/09/07 08:33:54;;;;;;;25.90;20.70;;;18.50;99.90;;;;;;5014641;28;20041;-75
2022/09/07 08:36:20;;;;;;;27.20;22.42;;;18.60;99.90;;;;;;4983566;28;20119;-76
2022/09/07 08:38:47;;;;;;;24.88;21.38;;;18.60;99.90;;;;;;4994852;28;20498;-75
2022/09/07 08:41:22;;;;;;;24.65;20.65;;;18.70;99.90;;;;;;4980536;28;20521;-75
2022/09/07 08:44:05;;;;;;;28.48;22.08;;;18.80;99.90;;;;;;5014861;28;20180;-75
2022/09/07 08:46:36;;;;;;;27.65;21.73;;;18.90;99.90;;;;;;4994403;28;20489;-75
2022/09/07 08:49:05;;;;;;;26.23;21.30;;;18.90;99.90;;;;;;4998411;28;20183;-76
2022/09/07 08:52:16;;;;;;;28.48;22.58;;;18.80;99.90;;;;;;5014598;28;20103;-76
2022/09/07 08:54:48;;;;;;;24.83;20.10;;;18.90;99.90;;;;;;4978570;28;20410;-76
2022/09/07 08:57:21;;;;;;;25.35;20.95;;;18.90;99.90;;;;;;4993464;28;20113;-76
2022/09/07 09:00:14;;;;;;;25.33;20.92;;;19.00;99.90;;;;;;5011112;28;20049;-76
2022/09/07 09:02:40;;;;;;;26.30;20.83;;;19.10;99.90;;;;;;5011206;28;20069;-76
2022/09/07 09:05:27;;;;;;;23.42;20.67;;;19.30;99.90;;;;;;5000950;28;20077;-76
2022/09/07 09:08:10;;;;;;;27.85;19.20;;;19.40;99.90;;;;;;4999357;28;20376;-75
2022/09/07 09:11:08;;;;;;;26.38;21.58;;;19.40;99.90;;;;;;5009201;28;20042;-76
2022/09/07 09:14:02;;;;;;;22.65;20.13;;;19.50;99.90;;;;;;4997758;28;20046;-75
2022/09/07 09:16:36;;;;;;;27.13;20.05;;;19.40;99.90;;;;;;4997134;28;20053;-75
2022/09/07 09:19:21;;;;;;;24.02;20.52;;;19.40;99.90;;;;;;4995713;28;20041;-75
2022/09/07 09:21:47;;;;;;;24.92;19.80;;;19.40;99.90;;;;;;5004848;28;20058;-75
2022/09/07 09:24:18;;;;;;;25.15;19.70;;;19.30;99.90;;;;;;5009406;28;20200;-75
2022/09/07 09:26:52;;;;;;;25.60;20.42;;;19.20;99.90;;;;;;5014136;28;20096;-75
2022/09/07 09:29:20;;;;;;;25.15;20.00;;;19.20;99.90;;;;;;5014024;28;20038;-75
2022/09/07 09:31:46;;;;;;;25.48;19.70;;;19.40;99.90;;;;;;4998220;28;20049;-76
2022/09/07 09:34:16;;;;;;;26.80;20.02;;;19.40;99.90;;;;;;5010403;28;20042;-75
2022/09/07 09:36:46;;;;;;;25.98;20.58;;;19.50;99.90;;;;;;4993663;28;20080;-75
2022/09/07 09:39:30;;;;;;;25.63;21.23;;;19.70;99.90;;;;;;5011100;28;20129;-75
2022/09/07 09:42:22;;;;;;;23.70;20.63;;;19.90;99.90;;;;;;5013035;28;20305;-75
2022/09/07 09:44:48;;;;;;;25.00;21.27;;;20.00;99.90;;;;;;4995891;28;20538;-75
2022/09/07 09:47:31;;;;;;;25.50;21.63;;;20.10;99.90;;;;;;5011767;28;20379;-75
2022/09/07 09:50:03;;;;;;;25.95;20.80;;;20.20;99.90;;;;;;5008093;28;20132;-76
2022/09/07 09:52:34;;;;;;;25.23;20.00;;;20.20;99.90;;;;;;5013249;28;20033;-75
2022/09/07 09:55:01;;;;;;;27.30;21.73;;;20.40;99.90;;;;;;4996904;28;20390;-75
2022/09/07 09:57:51;;;;;;;27.63;22.38;;;20.40;99.90;;;;;;5012659;28;20117;-76
2022/09/07 10:00:22;;;;;;;26.10;20.58;;;20.50;99.90;;;;;;5013520;28;20046;-75
2022/09/07 10:03:02;;;;;;;;;;;20.60;99.90;;;;;;5013564;28;20478;-76
2022/09/07 10:05:49;;;;;;;25.65;21.05;;;20.70;99.90;;;;;;5003515;28;20303;-75
2022/09/07 10:08:15;;;;;;;27.40;20.55;;;20.70;99.90;;;;;;4989921;28;20073;-75
2022/09/07 10:10:56;;;;;;;27.10;21.65;;;20.80;99.90;;;;;;5009118;28;20042;-75
2022/09/07 10:13:30;;;;;;;27.00;22.25;;;20.60;99.90;;;;;;4996737;28;20042;-75
2022/09/07 10:16:02;;;;;;;26.90;22.45;;;20.70;99.90;;;;;;5011600;28;20482;-75
2022/09/07 10:18:33;;;;;;;27.38;21.45;;;20.90;99.90;;;;;;4977337;28;20046;-76
2022/09/07 10:21:32;;;;;;;27.35;22.10;;;20.90;99.90;;;;;;4997847;28;20112;-75
2022/09/07 10:24:03;;;;;;;24.80;20.88;;;20.90;99.90;;;;;;4955507;28;20051;-75
2022/09/07 10:26:33;;;;;;;26.10;21.63;;;21.00;99.90;;;;;;5022424;28;20069;-75
2022/09/07 10:29:18;;;;;;;24.85;20.88;;;21.10;99.90;;;;;;4993182;28;20044;-75
2022/09/07 10:31:55;;;;;;;24.40;20.65;;;21.10;99.90;;;;;;4985751;28;20514;-75
2022/09/07 10:34:27;;;;;;;24.80;20.92;;;21.10;99.90;;;;;;5011554;28;20044;-75
2022/09/07 10:37:05;;;;;;;23.05;20.20;;;21.20;99.90;;;;;;5007078;28;20482;-75
2022/09/07 10:39:56;;;;;;;22.23;19.10;;;21.20;99.90;;;;;;5001514;28;20034;-75
2022/09/07 10:42:38;;;;;;;23.33;19.80;;;21.20;99.90;;;;;;4996394;28;20041;-75
2022/09/07 10:45:13;;;;;;;23.60;19.30;;;21.40;99.90;;;;;;4990153;28;20046;-75
2022/09/07 10:47:54;;;;;;;22.42;19.02;;;21.60;99.90;;;;;;5005084;28;20049;-75
2022/09/07 10:50:43;;;;;;;23.77;19.77;;;21.80;99.90;;;;;;4996227;28;20072;-76
2022/09/07 10:53:48;;;;;;;24.23;20.85;;;21.90;99.90;;;;;;5009825;28;20042;-75
2022/09/07 10:56:24;;;;;;;23.83;20.40;;;21.90;99.90;;;;;;5008543;28;20058;-75
2022/09/07 10:59:24;;;;;;;21.83;19.38;;;21.80;99.90;;;;;;5006038;28;20056;-76
2022/09/07 11:01:50;;;;;;;25.77;19.85;;;21.80;99.90;;;;;;5008544;28;20042;-75
2022/09/07 11:04:28;;;;;;;20.25;18.10;;;21.70;99.90;;;;;;5008416;28;20053;-75
2022/09/07 11:07:18;;;;;;;19.70;17.13;;;21.70;99.90;;;;;;5010036;28;20497;-75
2022/09/07 11:10:17;;;;;;;20.33;17.58;;;21.70;99.90;;;;;;5008088;28;20057;-76
2022/09/07 11:12:44;;;;;;;16.90;14.82;;;21.80;99.90;;;;;;4989094;28;20050;-75
2022/09/07 11:15:34;;;;;;;18.75;15.18;;;22.00;99.90;;;;;;5012099;28;20107;-75
2022/09/07 11:18:38;;;;;;;20.15;15.85;;;22.30;99.90;;;;;;5011831;28;20096;-75
2022/09/07 11:21:16;;;;;;;17.00;15.30;;;22.90;99.90;;;;;;4969731;28;20050;-76
2022/09/07 11:23:44;;;;;;;18.42;16.42;;;23.10;99.90;;;;;;5000340;28;20072;-75
2022/09/07 11:26:18;;;;;;;18.67;15.82;;;23.30;99.90;;;;;;5010407;28;20157;-75
2022/09/07 11:28:50;;;;;;;18.27;16.00;;;23.30;99.90;;;;;;5009223;28;20100;-75
2022/09/07 11:31:29;;;;;;;32.75;18.23;;;23.10;99.90;;;;;;4991803;28;20069;-75
2022/09/07 11:34:13;;;;;;;19.90;14.77;;;23.20;99.90;;;;;;4995678;28;20050;-76
2022/09/07 11:36:50;;;;;;;15.95;13.82;;;23.30;99.90;;;;;;5011413;28;20042;-76
2022/09/07 11:39:25;;;;;;;14.52;13.05;;;23.40;99.90;;;;;;5006703;28;20050;-75
2022/09/07 11:42:07;;;;;;;13.05;11.57;;;23.60;99.90;;;;;;5004505;28;20550;-76
2022/09/07 11:44:58;;;;;;;16.25;14.55;;;23.80;99.90;;;;;;5004016;28;20046;-75
2022/09/07 11:47:27;;;;;;;15.93;14.23;;;23.70;99.90;;;;;;5005345;28;20049;-76
2022/09/07 11:49:54;;;;;;;14.07;12.68;;;23.80;99.90;;;;;;5008369;28;20043;-75
2022/09/07 11:52:41;;;;;;;15.32;12.75;;;23.70;99.90;;;;;;5008504;28;20093;-75
2022/09/07 11:55:18;;;;;;;13.55;11.85;;;24.00;99.90;;;;;;4998681;28;20410;-75
2022/09/07 11:58:12;;;;;;;13.50;12.20;;;24.00;99.90;;;;;;5010180;28;20046;-75
2022/09/07 12:00:47;;;;;;;12.48;11.27;;;24.10;99.90;;;;;;4994654;28;20037;-75
2022/09/07 12:03:55;;;;;;;13.13;11.63;;;24.70;99.90;;;;;;5009821;28;20042;-75
2022/09/07 12:06:31;;;;;;;13.98;12.23;;;24.90;99.90;;;;;;4953619;28;20061;-76
2022/09/07 12:09:23;;;;;;;12.38;10.45;;;24.40;99.90;;;;;;5001466;28;20125;-75
2022/09/07 12:12:17;;;;;;;11.23;9.63;;;24.20;99.90;;;;;;5025138;28;20081;-75
2022/09/07 12:15:10;;;;;;;9.15;8.25;;;24.40;99.90;;;;;;5010066;28;20052;-75
2022/09/07 12:18:00;;;;;;;12.25;8.60;;;24.40;99.90;;;;;;5011372;28;20478;-76
2022/09/07 12:20:41;;;;;;;11.88;10.68;;;24.40;99.90;;;;;;5011519;28;20038;-76
2022/09/07 12:23:23;;;;;;;10.77;9.68;;;24.40;99.90;;;;;;5007706;28;20060;-76
2022/09/07 12:25:51;;;;;;;8.57;7.35;;;24.60;99.90;;;;;;5006081;28;20125;-76
2022/09/07 12:28:23;;;;;;;9.32;8.35;;;24.50;99.90;;;;;;4965290;28;20042;-76
2022/09/07 12:31:01;;;;;;;9.38;7.20;;;24.50;99.90;;;;;;5002705;28;20046;-74
2022/09/07 12:33:38;;;;;;;8.25;7.28;;;24.80;99.90;;;;;;5012832;28;20041;-76
2022/09/07 12:36:26;;;;;;;8.57;7.10;;;25.00;99.90;;;;;;5014632;28;20125;-75
2022/09/07 12:39:25;;;;;;;9.05;7.38;;;24.90;99.90;;;;;;5022559;28;20084;-76
2022/09/07 12:42:13;;;;;;;9.27;7.07;;;25.40;99.90;;;;;;5013987;28;20394;-76
2022/09/07 12:44:39;;;;;;;5.82;5.07;;;26.20;99.90;;;;;;5028850;28;20054;-76
2022/09/07 12:47:11;;;;;;;7.38;5.60;;;26.80;99.90;;;;;;4981636;28;20487;-76
2022/09/07 12:50:20;;;;;;;6.57;5.70;;;27.30;99.90;;;;;;5011610;28;20125;-76
2022/09/07 12:53:10;;;;;;;6.60;5.97;;;27.00;97.60;;;;;;4957315;28;20054;-76
2022/09/07 12:56:10;;;;;;;6.63;5.60;;;27.00;99.90;;;;;;4942172;28;20046;-76
2022/09/07 12:58:47;;;;;;;6.95;5.88;;;27.20;99.90;;;;;;4979568;28;20144;-76
2022/09/07 13:01:31;;;;;;;7.15;5.75;;;27.70;99.90;;;;;;5010226;28;20042;-76
2022/09/07 13:04:20;;;;;;;5.18;4.68;;;28.60;98.60;;;;;;5006645;28;20494;-76